createdAt,value
2022-12-29T00:02:16.171Z,13.30
2022-12-29T00:04:43.795Z,13.73
2022-12-29T00:07:11.477Z,12.93
2022-12-29T00:09:38.915Z,13.85
2022-12-29T00:12:06.713Z,14.32
2022-12-29T00:14:52.516Z,13.45
2022-12-29T00:17:19.750Z,13.50
2022-12-29T00:20:05.762Z,13.18
2022-12-29T00:22:52.075Z,13.82
2022-12-29T00:25:38.263Z,13.70
2022-12-29T00:28:25.091Z,13.82
2022-12-29T00:31:11.068Z,12.73
2022-12-29T00:33:56.994Z,13.05
2022-12-29T00:36:29.291Z,12.27
2022-12-29T00:39:17.015Z,13.27
2022-12-29T00:42:04.371Z,14.18
2022-12-29T00:44:31.601Z,13.45
2022-12-29T00:47:03.456Z,12.48
2022-12-29T00:49:34.273Z,13.32
2022-12-29T00:52:12.345Z,13.73
2022-12-29T00:54:40.541Z,13.45
2022-12-29T00:57:09.004Z,12.68
2022-12-29T00:59:37.226Z,13.48
2022-12-29T01:02:04.582Z,13.20
2022-12-29T01:04:31.901Z,13.90
2022-12-29T01:06:59.292Z,13.65
2022-12-29T01:09:45.304Z,13.52
2022-12-29T01:12:13.230Z,13.90
2022-12-29T01:14:41.616Z,14.10
2022-12-29T01:17:09.021Z,13.95
2022-12-29T01:19:36.488Z,13.55
2022-12-29T01:22:03.659Z,13.52
2022-12-29T01:24:31.061Z,13.60
2022-12-29T01:26:58.399Z,13.05
2022-12-29T01:29:25.690Z,11.05
2022-12-29T01:31:53.134Z,12.13
2022-12-29T01:34:20.505Z,13.27
2022-12-29T01:36:47.979Z,12.57
2022-12-29T01:39:15.191Z,11.45
2022-12-29T01:41:43.696Z,11.50
2022-12-29T01:44:29.625Z,12.55
2022-12-29T01:46:56.998Z,12.65
2022-12-29T01:49:26.426Z,12.88
2022-12-29T01:51:55.840Z,13.90
2022-12-29T01:54:38.180Z,12.55
2022-12-29T01:57:08.400Z,12.43
2022-12-29T01:59:41.564Z,12.95
2022-12-29T02:02:09.285Z,13.30
2022-12-29T02:04:38.397Z,12.05
2022-12-29T02:07:09.713Z,11.20
2022-12-29T02:09:37.479Z,11.32
2022-12-29T02:12:05.428Z,12.02
2022-12-29T02:14:33.029Z,8.98
2022-12-29T02:17:18.947Z,6.95
2022-12-29T02:19:57.149Z,7.90
2022-12-29T02:22:37.041Z,7.20
2022-12-29T02:25:22.658Z,7.28
2022-12-29T02:27:52.769Z,8.10
2022-12-29T02:30:20.136Z,6.80
2022-12-29T02:33:03.007Z,7.20
2022-12-29T02:35:33.400Z,7.32
2022-12-29T02:38:01.143Z,7.82
2022-12-29T02:40:54.883Z,8.13
2022-12-29T02:43:42.329Z,7.57
2022-12-29T02:46:14.774Z,7.45
2022-12-29T02:48:45.226Z,8.35
2022-12-29T02:51:12.557Z,8.15
2022-12-29T02:53:58.761Z,9.75
2022-12-29T02:56:26.137Z,9.05
2022-12-29T02:58:53.447Z,8.95
2022-12-29T03:01:26.495Z,9.07
2022-12-29T03:03:53.797Z,9.65
2022-12-29T03:06:27.044Z,10.63
2022-12-29T03:09:01.948Z,10.75
2022-12-29T03:11:51.242Z,9.90
2022-12-29T03:14:44.200Z,13.38
2022-12-29T03:17:16.115Z,14.93
2022-12-29T03:19:48.670Z,10.70
2022-12-29T03:22:28.736Z,11.75
2022-12-29T03:25:08.545Z,7.00
2022-12-29T03:27:38.812Z,9.10
2022-12-29T03:30:07.243Z,8.70
2022-12-29T03:32:58.544Z,7.22
2022-12-29T03:35:27.701Z,7.95
2022-12-29T03:37:59.511Z,8.15
2022-12-29T03:40:28.065Z,7.63
2022-12-29T03:42:55.437Z,8.95
2022-12-29T03:45:22.706Z,8.27
2022-12-29T03:47:50.060Z,7.30
2022-12-29T03:50:17.587Z,8.65
2022-12-29T03:52:45.951Z,8.20
2022-12-29T03:55:13.175Z,7.60
2022-12-29T03:57:41.702Z,8.45
2022-12-29T04:00:09.271Z,8.27
2022-12-29T04:02:36.580Z,7.53
2022-12-29T04:05:04.220Z,7.55
2022-12-29T04:07:31.587Z,8.32
2022-12-29T04:09:58.985Z,8.13
2022-12-29T04:12:26.406Z,7.68
2022-12-29T04:14:53.823Z,8.07
2022-12-29T04:17:21.132Z,7.97
2022-12-29T04:19:48.671Z,7.70
2022-12-29T04:22:15.964Z,8.23
2022-12-29T04:24:43.171Z,8.23
2022-12-29T04:27:10.645Z,7.18
2022-12-29T04:29:37.884Z,7.13
2022-12-29T04:32:05.171Z,7.22
2022-12-29T04:34:32.560Z,6.70
2022-12-29T04:36:59.729Z,7.22
2022-12-29T04:39:27.059Z,6.63
2022-12-29T04:41:54.408Z,6.20
2022-12-29T04:44:21.713Z,7.32
2022-12-29T04:46:48.932Z,7.55
2022-12-29T04:49:16.311Z,8.25
2022-12-29T04:51:45.524Z,6.60
2022-12-29T04:54:12.728Z,8.27
2022-12-29T04:56:39.928Z,6.60
2022-12-29T04:59:07.479Z,7.05
2022-12-29T05:01:34.870Z,6.43
2022-12-29T05:04:02.375Z,7.50
2022-12-29T05:06:29.563Z,7.25
2022-12-29T05:08:56.717Z,7.15
2022-12-29T05:11:23.874Z,7.10
2022-12-29T05:13:51.025Z,6.35
2022-12-29T05:16:18.380Z,6.63
2022-12-29T05:18:46.081Z,6.90
2022-12-29T05:21:13.398Z,7.13
2022-12-29T05:23:40.692Z,7.32
2022-12-29T05:26:08.057Z,7.25
2022-12-29T05:28:35.632Z,6.97
2022-12-29T05:31:02.957Z,8.15
2022-12-29T05:33:30.281Z,6.63
2022-12-29T05:35:57.521Z,6.78
2022-12-29T05:38:24.735Z,7.05
2022-12-29T05:40:52.143Z,7.40
2022-12-29T05:43:19.293Z,7.65
2022-12-29T05:45:49.802Z,7.95
2022-12-29T05:48:17.107Z,7.95
2022-12-29T05:50:44.396Z,7.82
2022-12-29T05:53:11.729Z,7.25
2022-12-29T05:55:43.468Z,7.38
2022-12-29T05:58:14.353Z,6.93
2022-12-29T06:00:41.907Z,6.82
2022-12-29T06:03:09.321Z,8.65
2022-12-29T06:05:36.677Z,9.60
2022-12-29T06:08:04.150Z,8.85
2022-12-29T06:10:31.470Z,7.95
2022-12-29T06:12:58.852Z,7.38
2022-12-29T06:15:26.169Z,7.57
2022-12-29T06:17:53.405Z,8.05
2022-12-29T06:20:20.710Z,7.85
2022-12-29T06:22:48.101Z,8.15
2022-12-29T06:25:15.403Z,7.47
2022-12-29T06:27:42.884Z,8.10
2022-12-29T06:30:10.745Z,8.75
2022-12-29T06:32:38.431Z,7.30
2022-12-29T06:35:07.250Z,7.95
2022-12-29T06:37:34.575Z,8.90
2022-12-29T06:40:01.926Z,8.98
2022-12-29T06:42:29.433Z,8.32
2022-12-29T06:44:59.610Z,7.85
2022-12-29T06:47:26.939Z,9.02
2022-12-29T06:49:54.840Z,9.38
2022-12-29T06:52:22.108Z,10.35
2022-12-29T06:54:49.615Z,10.30
2022-12-29T06:57:17.072Z,8.00
2022-12-29T06:59:44.413Z,7.85
2022-12-29T07:02:12.784Z,8.32
2022-12-29T07:04:40.146Z,24.50
2022-12-29T07:07:07.800Z,18.63
2022-12-29T07:09:35.088Z,13.85
2022-12-29T07:12:02.629Z,10.30
2022-12-29T07:14:30.064Z,8.70
2022-12-29T07:16:57.473Z,8.35
2022-12-29T07:19:24.891Z,8.13
2022-12-29T07:21:52.175Z,7.30
2022-12-29T07:24:19.546Z,6.53
2022-12-29T07:26:46.843Z,6.80
2022-12-29T07:29:14.129Z,8.00
2022-12-29T07:31:41.542Z,10.90
2022-12-29T07:34:10.137Z,10.98
2022-12-29T07:36:37.491Z,10.88
2022-12-29T07:39:04.954Z,7.82
2022-12-29T07:41:32.280Z,7.90
2022-12-29T07:43:59.531Z,6.28
2022-12-29T07:46:56.460Z,6.90
2022-12-29T07:49:14.333Z,7.63
2022-12-29T07:51:41.675Z,6.75
2022-12-29T07:54:09.063Z,7.28
2022-12-29T07:56:36.490Z,7.40
2022-12-29T07:59:03.858Z,7.30
2022-12-29T08:01:31.270Z,8.27
2022-12-29T08:03:58.598Z,8.35
2022-12-29T08:06:26.003Z,8.57
2022-12-29T08:08:53.261Z,7.40
2022-12-29T08:11:21.058Z,7.63
2022-12-29T08:13:48.228Z,7.38
2022-12-29T08:16:15.852Z,7.97
2022-12-29T08:18:43.314Z,7.22
2022-12-29T08:21:10.596Z,7.07
2022-12-29T08:23:39.419Z,7.13
2022-12-29T08:26:07.276Z,9.15
2022-12-29T08:28:47.112Z,7.50
2022-12-29T08:31:18.341Z,7.72
2022-12-29T08:33:45.995Z,9.27
2022-12-29T08:39:16.277Z,8.73
2022-12-29T08:41:43.674Z,8.25
2022-12-29T08:44:25.363Z,8.57
2022-12-29T08:47:01.220Z,8.25
2022-12-29T08:50:37.685Z,9.30
2022-12-29T08:56:20.336Z,8.70
2022-12-29T09:02:23.865Z,8.52
2022-12-29T09:05:17.100Z,8.30
2022-12-29T09:11:03.202Z,8.95
2022-12-29T09:14:12.036Z,9.18
2022-12-29T09:17:24.735Z,9.50
2022-12-29T09:23:13.840Z,8.70
2022-12-29T09:32:55.032Z,8.85
2022-12-29T09:34:59.975Z,8.75
2022-12-29T09:37:27.280Z,9.02
2022-12-29T09:40:02.183Z,9.57
2022-12-29T09:42:34.583Z,8.88
2022-12-29T09:45:21.885Z,9.20
2022-12-29T09:47:51.573Z,8.85
2022-12-29T09:50:41.248Z,8.60
2022-12-29T09:53:32.955Z,8.73
2022-12-29T09:56:20.234Z,8.73
2022-12-29T09:59:30.460Z,8.77
2022-12-29T10:02:16.291Z,10.18
2022-12-29T10:04:43.844Z,9.65
2022-12-29T10:07:30.600Z,8.60
2022-12-29T10:10:04.578Z,8.40
2022-12-29T10:12:50.752Z,9.55
2022-12-29T10:15:20.673Z,8.82
2022-12-29T10:17:49.619Z,8.40
2022-12-29T10:20:19.591Z,8.30
2022-12-29T10:22:56.501Z,8.73
2022-12-29T10:25:31.199Z,7.63
2022-12-29T10:28:04.096Z,8.50
2022-12-29T10:30:31.412Z,9.02
2022-12-29T10:33:00.298Z,9.85
2022-12-29T10:35:32.568Z,9.20
2022-12-29T10:38:15.070Z,8.77
2022-12-29T10:40:45.054Z,8.32
2022-12-29T10:43:27.530Z,7.28
2022-12-29T10:45:56.511Z,7.90
2022-12-29T10:48:34.255Z,7.43
2022-12-29T10:51:06.804Z,7.05
2022-12-29T10:56:59.776Z,7.43
2022-12-29T10:59:29.319Z,14.15
2022-12-29T11:02:14.399Z,9.97
2022-12-29T11:05:00.411Z,9.27
2022-12-29T11:07:27.888Z,6.55
2022-12-29T11:10:24.473Z,10.38
2022-12-29T11:13:27.050Z,8.95
2022-12-29T11:16:17.359Z,9.02
2022-12-29T11:18:48.042Z,8.15
2022-12-29T11:21:31.479Z,8.10
2022-12-29T11:24:00.721Z,10.07
2022-12-29T11:26:33.824Z,9.30
2022-12-29T11:29:18.441Z,8.25
2022-12-29T11:31:51.860Z,7.30
2022-12-29T11:34:24.780Z,7.57
2022-12-29T11:36:53.277Z,8.25
2022-12-29T11:39:51.488Z,7.70
2022-12-29T11:42:28.063Z,5.55
2022-12-29T11:45:10.639Z,6.75
2022-12-29T11:47:39.462Z,7.28
2022-12-29T11:50:09.315Z,5.95
2022-12-29T11:52:41.521Z,6.85
2022-12-29T11:55:18.428Z,6.60
2022-12-29T11:57:48.309Z,7.22
2022-12-29T12:00:20.923Z,6.50
2022-12-29T12:03:12.057Z,6.60
2022-12-29T12:05:42.504Z,7.03
2022-12-29T12:08:21.107Z,7.38
2022-12-29T12:10:52.911Z,6.65
2022-12-29T12:13:20.181Z,6.47
2022-12-29T12:15:57.281Z,7.78
2022-12-29T12:18:39.620Z,6.53
2022-12-29T12:21:25.449Z,6.07
2022-12-29T12:24:02.136Z,5.75
2022-12-29T12:26:52.636Z,6.15
2022-12-29T12:29:28.943Z,6.47
2022-12-29T12:31:59.617Z,6.25
2022-12-29T12:34:26.860Z,6.90
2022-12-29T12:37:10.649Z,7.93
2022-12-29T12:39:56.840Z,6.60
2022-12-29T12:42:26.971Z,6.75
2022-12-29T12:45:12.997Z,6.50
2022-12-29T12:48:04.672Z,7.35
2022-12-29T12:50:41.125Z,6.90
2022-12-29T12:53:28.645Z,7.38
2022-12-29T12:56:10.831Z,6.80
2022-12-29T12:58:38.060Z,6.70
2022-12-29T13:01:05.369Z,6.57
2022-12-29T13:03:47.619Z,6.95
2022-12-29T13:06:14.937Z,7.60
2022-12-29T13:08:56.531Z,8.02
2022-12-29T13:11:26.936Z,7.53
2022-12-29T13:14:03.103Z,7.88
2022-12-29T13:16:45.300Z,6.88
2022-12-29T13:19:31.482Z,6.95
2022-12-29T13:22:06.989Z,6.85
2022-12-29T13:24:37.798Z,7.47
2022-12-29T13:27:37.113Z,7.68
2022-12-29T13:30:19.165Z,7.55
2022-12-29T13:32:58.974Z,7.93
2022-12-29T13:35:26.321Z,8.73
2022-12-29T13:37:59.477Z,8.02
2022-12-29T13:40:28.195Z,7.60
2022-12-29T13:42:56.988Z,8.32
2022-12-29T13:45:30.373Z,8.00
2022-12-29T13:48:02.210Z,7.80
2022-12-29T13:50:31.514Z,9.15
2022-12-29T13:53:19.416Z,8.23
2022-12-29T13:55:53.829Z,8.07
2022-12-29T13:58:53.746Z,8.77
2022-12-29T14:01:41.399Z,8.38
2022-12-29T14:04:14.398Z,8.35
2022-12-29T14:06:43.218Z,8.68
2022-12-29T14:09:36.375Z,8.15
2022-12-29T14:12:20.279Z,9.05
2022-12-29T14:14:47.516Z,9.18
2022-12-29T14:21:05.297Z,8.98
2022-12-29T14:24:01.114Z,9.00
2022-12-29T14:29:27.121Z,8.70
2022-12-29T14:31:57.266Z,8.30
2022-12-29T14:34:32.952Z,9.63
2022-12-29T14:37:03.874Z,8.98
2022-12-29T14:39:31.743Z,8.63
2022-12-29T14:42:02.833Z,10.18
2022-12-29T14:44:30.221Z,10.55
2022-12-29T14:46:59.112Z,10.07
2022-12-29T14:49:58.666Z,10.80
2022-12-29T14:52:48.471Z,12.70
2022-12-29T14:55:22.067Z,11.70
2022-12-29T14:57:51.366Z,14.57
2022-12-29T15:00:25.509Z,12.98
2022-12-29T15:03:06.911Z,13.30
2022-12-29T15:05:34.181Z,14.48
2022-12-29T15:08:02.058Z,13.85
2022-12-29T15:10:33.385Z,14.77
2022-12-29T15:13:05.766Z,18.27
2022-12-29T15:15:37.880Z,16.92
2022-12-29T15:18:25.118Z,17.67
2022-12-29T15:20:53.354Z,18.75
2022-12-29T15:23:20.637Z,18.88
2022-12-29T15:26:23.681Z,19.63
2022-12-29T15:28:55.730Z,19.38
2022-12-29T15:31:30.589Z,20.65
2022-12-29T15:34:11.485Z,21.35
2022-12-29T15:36:40.375Z,19.50
2022-12-29T15:39:29.220Z,20.75
2022-12-29T15:42:01.178Z,19.52
2022-12-29T15:44:38.614Z,22.52
2022-12-29T15:47:07.440Z,21.73
2022-12-29T15:49:34.927Z,23.25
2022-12-29T15:52:02.210Z,23.23
2022-12-29T15:54:32.026Z,24.83
2022-12-29T15:56:59.319Z,26.88
2022-12-29T15:59:29.385Z,26.88
2022-12-29T16:02:00.283Z,25.27
2022-12-29T16:04:29.771Z,22.50
2022-12-29T16:06:59.689Z,25.55
2022-12-29T16:09:46.155Z,26.05
2022-12-29T16:12:22.316Z,24.83
2022-12-29T16:14:52.457Z,24.48
2022-12-29T16:17:22.876Z,24.42
2022-12-29T16:19:52.608Z,25.15
2022-12-29T16:22:26.037Z,23.48
2022-12-29T16:25:05.444Z,25.20
2022-12-29T16:27:40.663Z,27.52
2022-12-29T16:30:10.688Z,23.85
2022-12-29T16:32:46.987Z,25.48
2022-12-29T16:35:14.359Z,25.05
2022-12-29T16:37:42.042Z,25.33
2022-12-29T16:40:33.377Z,26.77
2022-12-29T16:43:05.493Z,26.98
2022-12-29T16:45:58.983Z,27.35
2022-12-29T16:48:30.752Z,26.38
2022-12-29T16:51:16.791Z,25.52
2022-12-29T16:53:48.994Z,26.05
2022-12-29T16:56:22.099Z,26.20
2022-12-29T16:58:53.558Z,25.52
2022-12-29T17:01:21.045Z,25.73
2022-12-29T17:03:51.910Z,28.38
2022-12-29T17:06:20.154Z,30.25
2022-12-29T17:08:49.964Z,31.55
2022-12-29T17:12:00.408Z,51.15
2022-12-29T17:14:37.521Z,44.58
2022-12-29T17:17:06.046Z,44.05
2022-12-29T17:19:34.999Z,44.90
2022-12-29T17:22:02.853Z,43.25
2022-12-29T17:24:30.670Z,41.35
2022-12-29T17:26:59.252Z,36.38
2022-12-29T17:29:31.715Z,38.03
2022-12-29T17:31:59.469Z,38.67
2022-12-29T17:34:27.199Z,37.70
2022-12-29T17:36:54.593Z,30.98
2022-12-29T17:39:22.132Z,33.05
2022-12-29T17:41:50.057Z,36.22
2022-12-29T17:44:19.108Z,35.20
2022-12-29T17:46:47.067Z,36.15
2022-12-29T17:49:15.243Z,36.20
2022-12-29T17:51:43.672Z,35.83
2022-12-29T17:54:24.942Z,35.45
2022-12-29T17:56:54.293Z,34.45
2022-12-29T17:59:21.777Z,35.25
2022-12-29T18:01:49.882Z,36.20
2022-12-29T18:04:18.976Z,37.10
2022-12-29T18:06:46.844Z,35.00
2022-12-29T18:09:18.035Z,30.88
2022-12-29T18:11:49.215Z,31.10
2022-12-29T18:14:17.376Z,34.55
2022-12-29T18:16:44.802Z,35.70
2022-12-29T18:19:12.200Z,33.53
2022-12-29T18:21:40.467Z,32.22
2022-12-29T18:24:08.189Z,34.15
2022-12-29T18:26:37.685Z,31.63
2022-12-29T18:29:05.005Z,31.58
2022-12-29T18:31:33.543Z,34.58
2022-12-29T18:34:02.218Z,34.17
2022-12-29T18:36:29.503Z,36.78
2022-12-29T18:38:57.246Z,34.97
2022-12-29T18:41:57.254Z,39.00
2022-12-29T18:44:54.736Z,47.47
2022-12-29T18:47:31.021Z,40.97
2022-12-29T18:50:59.653Z,32.05
2022-12-29T18:53:19.929Z,37.65
2022-12-29T18:56:25.109Z,38.50
2022-12-29T19:08:58.587Z,37.42
2022-12-29T19:15:14.964Z,38.75
2022-12-29T19:18:46.531Z,38.33
2022-12-29T19:21:31.490Z,68.72
2022-12-29T19:30:52.994Z,34.63
2022-12-29T19:33:34.754Z,28.90
2022-12-29T19:37:11.766Z,31.10
2022-12-29T19:40:09.310Z,29.35
2022-12-29T19:42:37.500Z,28.83
2022-12-29T19:45:07.833Z,21.88
2022-12-29T19:47:35.613Z,21.98
2022-12-29T19:50:04.122Z,24.80
2022-12-29T19:52:32.270Z,26.00
2022-12-29T19:55:02.687Z,23.08
2022-12-29T19:57:35.727Z,22.52
2022-12-29T20:00:09.221Z,22.35
2022-12-29T20:02:37.917Z,22.45
2022-12-29T20:05:05.541Z,24.45
2022-12-29T20:07:33.145Z,23.50
2022-12-29T20:10:01.933Z,22.38
2022-12-29T20:12:29.691Z,20.58
2022-12-29T20:14:59.272Z,18.60
2022-12-29T20:17:53.916Z,20.60
2022-12-29T20:20:14.449Z,20.23
2022-12-29T20:22:41.863Z,19.85
2022-12-29T20:25:43.843Z,18.75
2022-12-29T20:27:56.908Z,18.27
2022-12-29T20:30:26.562Z,17.90
2022-12-29T20:32:56.359Z,18.10
2022-12-29T20:35:24.535Z,19.58
2022-12-29T20:37:53.515Z,19.83
2022-12-29T20:40:21.092Z,20.50
2022-12-29T20:42:49.065Z,19.00
2022-12-29T20:45:16.393Z,19.50
2022-12-29T20:47:43.645Z,20.10
2022-12-29T20:50:11.795Z,21.38
2022-12-29T20:52:39.227Z,18.80
2022-12-29T20:55:06.724Z,17.60
2022-12-29T20:57:49.960Z,24.23
2022-12-29T21:00:22.749Z,18.92
2022-12-29T21:02:51.072Z,19.33
2022-12-29T21:05:25.973Z,20.05
2022-12-29T21:07:54.187Z,19.85
2022-12-29T21:10:23.549Z,21.63
2022-12-29T21:12:51.355Z,18.70
2022-12-29T21:15:18.744Z,18.83
2022-12-29T21:17:47.671Z,19.42
2022-12-29T21:20:20.448Z,19.00
2022-12-29T21:22:49.354Z,22.55
2022-12-29T21:25:20.122Z,20.92
2022-12-29T21:27:52.624Z,23.23
2022-12-29T21:30:25.625Z,21.52
2022-12-29T21:32:53.161Z,18.77
2022-12-29T21:35:20.878Z,21.38
2022-12-29T21:37:50.320Z,20.10
2022-12-29T21:40:19.375Z,19.08
2022-12-29T21:42:46.735Z,18.85
2022-12-29T21:45:26.147Z,19.50
2022-12-29T21:48:13.305Z,17.10
2022-12-29T21:51:03.855Z,19.95
2022-12-29T21:53:41.287Z,17.02
2022-12-29T21:56:13.148Z,22.20
2022-12-29T21:59:00.263Z,20.85
2022-12-29T22:01:47.798Z,19.13
2022-12-29T22:04:35.561Z,17.98
2022-12-29T22:07:22.956Z,16.60
2022-12-29T22:10:08.829Z,17.77
2022-12-29T22:12:55.292Z,17.77
2022-12-29T22:15:28.577Z,19.92
2022-12-29T22:17:56.296Z,18.98
2022-12-29T22:20:28.601Z,19.08
2022-12-29T22:22:55.820Z,19.95
2022-12-29T22:25:23.682Z,21.92
2022-12-29T22:27:55.661Z,23.35
2022-12-29T22:30:27.464Z,23.30
2022-12-29T22:32:54.988Z,20.58
2022-12-29T22:35:22.261Z,21.95
2022-12-29T22:37:50.243Z,21.38
2022-12-29T22:40:17.579Z,22.67
2022-12-29T22:42:44.926Z,23.95
2022-12-29T22:45:16.225Z,23.25
2022-12-29T22:47:45.420Z,23.15
2022-12-29T22:50:13.356Z,23.77
2022-12-29T22:52:40.977Z,22.98
2022-12-29T22:55:08.997Z,21.30
2022-12-29T22:57:39.261Z,22.55
2022-12-29T23:00:10.768Z,22.08
2022-12-29T23:02:39.042Z,21.88
2022-12-29T23:05:08.419Z,22.85
2022-12-29T23:07:36.305Z,22.45
2022-12-29T23:10:07.459Z,21.10
2022-12-29T23:12:34.721Z,21.50
2022-12-29T23:15:02.274Z,18.83
2022-12-29T23:17:30.054Z,20.10
2022-12-29T23:19:57.387Z,19.23
2022-12-29T23:22:26.509Z,18.95
2022-12-29T23:24:53.532Z,17.85
2022-12-29T23:27:20.443Z,21.17
2022-12-29T23:29:48.313Z,20.15
2022-12-29T23:32:15.724Z,19.33
2022-12-29T23:34:43.155Z,20.85
2022-12-29T23:37:11.590Z,23.30
2022-12-29T23:39:38.566Z,23.40
2022-12-29T23:42:05.545Z,23.80
2022-12-29T23:44:32.534Z,24.17
2022-12-29T23:46:59.782Z,22.52
2022-12-29T23:49:27.241Z,19.48
2022-12-29T23:51:54.269Z,21.52
2022-12-29T23:54:21.514Z,20.42
2022-12-29T23:56:48.412Z,17.92
2022-12-29T23:59:15.546Z,19.70
